Aérodrome :
LOGIN :

S'inscrire | Disclaimer

   EN    FR    IT 

 










Légende :    VFR   VFR Marginal   IFR   IFR Intensif   IFR Très Intensif
Visi : 
Plafond : 
>= 8 km
>= 3000ft
5 à 8 km
1000 à 3000 ft
1500m à 5 km
500 à 1000 ft
800 à 1500m
200 à 500 ft
< 800m
< 200 ft
Symboles :   Orages  Brouillard  Fortes neiges  Fortes précipitations  Vent > 20 kt
SIGMETs :   Divers  Orages  Givrage  Turbulence  Onde Orograph.  Cendres Volcan.






- Altitude de l'aérodrome : -15 ft
- Code IATA : RTM


EHRD - Rotterdam Zestienhoven

DERNIER METAR :
  • 301055Z AUTO 30018G29KT 260V340 9999 FEW027 BKN031 BKN037 08/04 Q1019 NOSIG

METARs EXPIRÉS :
  • 301025Z AUTO 29018G31KT 240V330 9999 FEW027 OVC031 08/04 Q1019 NOSIG
  • 300955Z AUTO 29019G30KT 250V330 9999 FEW027 BKN030 OVC035 08/04 Q1018 NOSIG
  • 300925Z AUTO 29019KT 240V330 9999 FEW027 SCT030 BKN035 08/04 Q1018 NOSIG
  • 300855Z AUTO 28017G29KT 240V320 9999 FEW033 07/04 Q1018 NOSIG
  • 300825Z AUTO 28017G27KT 250V320 9999 NCD 07/03 Q1017 NOSIG

TAF TAF EHRD
Valide du 30 à 06h jusqu'au 31 à 12h UTC


300508Z 3006/3112 29019G29KT 9999 FEW025
BECMG 3012/3015 31017KT
PROB30
TEMPO 3015/3018 7000 -SHRA FEW020TCU SCT040
BECMG 3015/3018 30011KT
BECMG 3021/3024 25008KT
BECMG 3107/3110 25017KT
TEMPO 3108/3112 5000 DZRA SCT008 BKN012



MET'MAP, la Météo Aéronautique d'un coup d'oeil ! - Copyright ORBIFLY Décembre 2007 - Disclaimer

ORBIFLY MET'MAP TEAM :

Programmation & Développement : Alexandra Zaïnal
Sur une idée originale de : Baudouin d'Aumeries
Soutien technique & logistique : Manuel Goepfert
Assistance : Marc-Olivier Méhu




SOURCES & CREDITS :

   NOAA